createdAt,value
2023-08-29T00:00:02.906Z,96390.59
2023-08-29T00:02:58.814Z,96403.59
2023-08-29T00:05:44.507Z,96412.34
2023-08-29T00:08:30.585Z,96415.00
2023-08-29T00:11:16.298Z,96409.72
2023-08-29T00:14:01.962Z,96409.72
2023-08-29T00:16:47.550Z,96409.16
2023-08-29T00:19:32.902Z,96420.56
2023-08-29T00:22:18.368Z,96424.81
2023-08-29T00:25:03.864Z,96433.59
2023-08-29T00:27:49.247Z,96426.16
2023-08-29T00:30:37.826Z,96431.47
2023-08-29T00:33:23.440Z,96441.03
2023-08-29T00:36:09.063Z,96442.63
2023-08-29T00:38:54.621Z,96444.22
2023-08-29T00:41:40.407Z,96448.22
2023-08-29T00:44:25.896Z,96451.44
2023-08-29T00:47:11.330Z,96446.91
2023-08-29T00:49:56.926Z,96432.59
2023-08-29T00:52:42.673Z,96434.44
2023-08-29T00:55:29.676Z,96438.94
2023-08-29T00:58:15.258Z,96443.22
2023-08-29T01:01:01.738Z,96432.59
2023-08-29T01:03:48.528Z,96426.47
2023-08-29T01:06:34.301Z,96430.72
2023-08-29T01:09:20.014Z,96426.22
2023-08-29T01:12:42.319Z,96403.13
2023-08-29T01:15:31.990Z,96408.44
2023-08-29T01:18:22.875Z,96393.56
2023-08-29T01:21:40.970Z,96383.22
2023-08-29T01:24:38.271Z,96371.56
2023-08-29T01:27:24.490Z,96388.53
2023-08-29T01:30:11.218Z,96372.63
2023-08-29T01:32:57.336Z,96364.09
2023-08-29T01:35:45.998Z,96354.03
2023-08-29T01:38:31.885Z,96351.88
2023-08-29T01:41:17.268Z,96345.50
2023-08-29T01:44:04.235Z,96358.00
2023-08-29T01:46:49.880Z,96352.13
2023-08-29T01:49:36.390Z,96357.44
2023-08-29T01:52:22.321Z,96348.13
2023-08-29T01:55:08.296Z,96335.94
2023-08-29T01:57:55.616Z,96341.22
2023-08-29T02:00:42.141Z,96332.22
2023-08-29T02:03:27.784Z,96320.00
2023-08-29T02:06:13.138Z,96322.66
2023-08-29T02:08:58.601Z,96323.22
2023-08-29T02:11:43.945Z,96314.19
2023-08-29T02:14:29.577Z,96319.50
2023-08-29T02:17:15.281Z,96306.25
2023-08-29T02:20:01.314Z,96313.38
2023-08-29T02:22:46.868Z,96309.69
2023-08-29T02:25:32.257Z,96313.66
2023-08-29T02:28:17.585Z,96322.19
2023-08-29T02:31:04.824Z,96315.81
2023-08-29T02:33:50.493Z,96326.97
2023-08-29T02:36:36.062Z,96327.50
2023-08-29T02:39:21.772Z,96331.75
2023-08-29T02:42:07.625Z,96338.66
2023-08-29T02:44:53.205Z,96335.75
2023-08-29T02:47:39.864Z,96342.94
2023-08-29T02:50:25.636Z,96343.47
2023-08-29T02:53:11.336Z,96341.38
2023-08-29T02:55:57.833Z,96336.06
2023-08-29T02:58:43.887Z,96327.03
2023-08-29T03:01:29.404Z,96313.00
2023-08-29T03:04:14.988Z,96311.13
2023-08-29T03:07:00.433Z,96308.47
2023-08-29T03:09:46.414Z,96317.22
2023-08-29T03:12:31.961Z,96314.56
2023-08-29T03:15:17.468Z,96314.81
2023-08-29T03:18:04.873Z,96313.78
2023-08-29T03:20:51.681Z,96302.09
2023-08-29T03:23:37.655Z,96303.16
2023-08-29T03:26:23.468Z,96303.16
2023-08-29T03:29:09.216Z,96300.25
2023-08-29T03:31:54.847Z,96288.84
2023-08-29T03:34:40.300Z,96294.94
2023-08-29T03:37:25.679Z,96286.19
2023-08-29T03:40:12.284Z,96280.06
2023-08-29T03:42:57.882Z,96291.50
2023-08-29T03:45:43.251Z,96289.88
2023-08-29T03:48:29.716Z,96289.63
2023-08-29T03:51:15.518Z,96286.69
2023-08-29T03:54:01.100Z,96289.13
2023-08-29T03:56:49.259Z,96286.19
2023-08-29T03:59:36.160Z,96296.31
2023-08-29T04:02:21.599Z,96291.00
2023-08-29T04:05:16.321Z,96291.00
2023-08-29T04:08:04.287Z,96287.25
2023-08-29T04:10:50.614Z,96289.69
2023-08-29T04:13:36.215Z,96292.84
2023-08-29T04:16:21.751Z,96300.56
2023-08-29T04:19:08.750Z,96296.84
2023-08-29T04:21:54.168Z,96291.53
2023-08-29T04:24:39.633Z,96287.03
2023-08-29T04:27:26.101Z,96280.41
2023-08-29T04:30:11.743Z,96268.72
2023-08-29T04:32:58.089Z,96266.06
2023-08-29T04:35:43.642Z,96266.84
2023-08-29T04:38:30.046Z,96259.72
2023-08-29T04:41:15.987Z,96267.69
2023-08-29T04:44:01.477Z,96267.69
2023-08-29T04:46:46.985Z,96265.81
2023-08-29T04:49:34.450Z,96265.03
2023-08-29T04:52:20.731Z,96274.03
2023-08-29T04:55:06.689Z,96279.88
2023-08-29T04:57:53.103Z,96282.28
2023-08-29T05:00:38.564Z,96283.06
2023-08-29T05:03:23.982Z,96282.56
2023-08-29T05:06:10.006Z,96284.94
2023-08-29T05:08:56.446Z,96275.66
2023-08-29T05:11:42.320Z,96282.28
2023-08-29T05:14:28.416Z,96284.69
2023-08-29T05:17:14.604Z,96279.38
2023-08-29T05:20:00.190Z,96275.41
2023-08-29T05:22:45.966Z,96279.13
2023-08-29T05:25:31.964Z,96284.44
2023-08-29T05:28:17.678Z,96280.97
2023-08-29T05:31:03.407Z,96283.38
2023-08-29T05:33:49.217Z,96282.31
2023-08-29T05:36:35.570Z,96284.44
2023-08-29T05:39:21.328Z,96277.03
2023-08-29T05:42:07.384Z,96285.00
2023-08-29T05:44:53.014Z,96283.91
2023-08-29T05:47:38.375Z,96287.38
2023-08-29T05:50:23.832Z,96286.06
2023-08-29T05:53:09.363Z,96279.91
2023-08-29T05:55:54.866Z,96291.09
2023-08-29T05:58:40.198Z,96293.22
2023-08-29T06:01:25.682Z,96298.53
2023-08-29T06:04:11.365Z,96301.72
2023-08-29T06:06:56.881Z,96299.59
2023-08-29T06:09:42.540Z,96308.13
2023-08-29T06:12:28.376Z,96312.63
2023-08-29T06:15:13.801Z,96304.66
2023-08-29T06:17:59.703Z,96302.81
2023-08-29T06:20:45.236Z,96311.84
2023-08-29T06:23:30.680Z,96320.88
2023-08-29T06:26:17.219Z,96329.66
2023-08-29T06:29:03.039Z,96328.56
2023-08-29T06:31:48.565Z,96327.50
2023-08-29T06:34:34.136Z,96321.91
2023-08-29T06:37:20.633Z,96327.00
2023-08-29T06:40:07.109Z,96329.38
2023-08-29T06:42:53.332Z,96339.50
2023-08-29T06:45:39.257Z,96334.19
2023-08-29T06:48:24.909Z,96329.66
2023-08-29T06:51:10.512Z,96324.06
2023-08-29T06:53:56.230Z,96323.00
2023-08-29T06:56:41.770Z,96320.09
2023-08-29T06:59:27.023Z,96315.03
2023-08-29T07:02:13.006Z,96319.84
2023-08-29T07:04:58.385Z,96323.84
2023-08-29T07:07:44.731Z,96318.78
2023-08-29T07:10:30.430Z,96315.06
2023-08-29T07:13:15.927Z,96318.25
2023-08-29T07:16:01.494Z,96318.78
2023-08-29T07:18:47.916Z,96320.94
2023-08-29T07:21:33.353Z,96328.63
2023-08-29T07:24:18.890Z,96328.09
2023-08-29T07:27:05.613Z,96332.06
2023-08-29T07:29:51.318Z,96326.78
2023-08-29T07:32:36.738Z,96335.03
2023-08-29T07:35:22.161Z,96331.84
2023-08-29T07:38:08.843Z,96342.22
2023-08-29T07:40:55.071Z,96338.25
2023-08-29T07:43:41.127Z,96336.38
2023-08-29T07:46:27.083Z,96333.16
2023-08-29T07:49:15.317Z,96341.16
2023-08-29T07:52:01.016Z,96340.91
2023-08-29T07:54:46.667Z,96333.72
2023-08-29T07:57:32.277Z,96339.31
2023-08-29T08:00:18.841Z,96354.75
2023-08-29T08:03:04.872Z,96353.41
2023-08-29T08:05:51.039Z,96357.94
2023-08-29T08:08:36.544Z,96353.94
2023-08-29T08:11:22.466Z,96352.59
2023-08-29T08:14:08.598Z,96347.28
2023-08-29T08:16:54.186Z,96352.31
2023-08-29T08:19:39.790Z,96360.84
2023-08-29T08:22:26.079Z,96369.88
2023-08-29T08:25:11.906Z,96376.81
2023-08-29T08:27:59.922Z,96381.84
2023-08-29T08:30:45.858Z,96384.00
2023-08-29T08:33:32.943Z,96386.38
2023-08-29T08:36:18.693Z,96392.22
2023-08-29T08:39:05.050Z,96386.63
2023-08-29T08:41:53.000Z,96387.19
2023-08-29T08:44:39.952Z,96386.91
2023-08-29T08:47:26.055Z,96391.16
2023-08-29T08:50:11.496Z,96396.47
2023-08-29T08:52:59.816Z,96396.22
2023-08-29T08:55:45.647Z,96397.28
2023-08-29T08:58:31.235Z,96398.34
2023-08-29T09:01:17.111Z,96395.66
2023-08-29T09:04:03.001Z,96401.81
2023-08-29T09:06:48.561Z,96403.13
2023-08-29T09:09:34.029Z,96403.63
2023-08-29T09:12:19.737Z,96401.53
2023-08-29T09:15:06.289Z,96407.41
2023-08-29T09:17:53.380Z,96406.56
2023-08-29T09:20:44.408Z,96409.25
2023-08-29T09:23:33.346Z,96413.22
2023-08-29T09:26:19.410Z,96416.44
2023-08-29T09:29:19.439Z,96418.81
2023-08-29T09:32:15.741Z,96421.47
2023-08-29T09:35:02.190Z,96422.53
2023-08-29T09:37:52.579Z,96418.81
2023-08-29T09:40:54.198Z,96415.88
2023-08-29T09:43:48.560Z,96418.28
2023-08-29T09:46:34.035Z,96410.81
2023-08-29T09:49:19.583Z,96419.34
2023-08-29T09:52:05.519Z,96411.91
2023-08-29T09:54:53.482Z,96407.91
2023-08-29T09:57:40.942Z,96408.44
2023-08-29T10:00:26.886Z,96405.50
2023-08-29T10:03:12.902Z,96409.47
2023-08-29T10:06:01.694Z,96414.25
2023-08-29T10:08:53.544Z,96422.00
2023-08-29T10:11:53.519Z,96419.06
2023-08-29T10:14:43.159Z,96426.25
2023-08-29T10:17:32.319Z,96426.25
2023-08-29T10:20:20.306Z,96424.38
2023-08-29T10:23:08.568Z,96423.59
2023-08-29T10:25:59.493Z,96428.63
2023-08-29T10:28:47.429Z,96425.16
2023-08-29T10:31:37.737Z,96415.84
2023-08-29T10:34:25.380Z,96426.25
2023-08-29T10:37:21.265Z,96421.19
2023-08-29T10:40:12.791Z,96416.69
2023-08-29T10:43:00.648Z,96421.19
2023-08-29T10:45:57.618Z,96422.00
2023-08-29T10:48:43.862Z,96421.44
2023-08-29T10:51:29.752Z,96419.56
2023-08-29T10:54:15.671Z,96418.78
2023-08-29T10:57:01.559Z,96414.78
2023-08-29T10:59:46.799Z,96410.53
2023-08-29T11:02:32.350Z,96421.44
2023-08-29T11:05:17.892Z,96426.22
2023-08-29T11:08:22.708Z,96428.34
2023-08-29T11:11:17.801Z,96427.53
2023-08-29T11:14:09.344Z,96428.06
2023-08-29T11:17:13.807Z,96416.88
2023-08-29T11:20:03.378Z,96419.78
2023-08-29T11:22:49.202Z,96420.84
2023-08-29T11:25:39.087Z,96427.19
2023-08-29T11:28:24.451Z,96431.22
2023-08-29T11:31:10.831Z,96435.19
2023-08-29T11:33:56.219Z,96439.44
2023-08-29T11:36:43.941Z,96441.03
2023-08-29T11:39:29.384Z,96443.69
2023-08-29T11:43:02.742Z,96449.59
2023-08-29T11:45:48.900Z,96440.53
2023-08-29T11:48:35.765Z,96445.84
2023-08-29T11:51:21.432Z,96444.50
2023-08-29T11:55:01.334Z,96445.28
2023-08-29T11:57:46.848Z,96433.03
2023-08-29T12:00:32.277Z,96432.25
2023-08-29T12:03:26.858Z,96428.75
2023-08-29T12:06:13.822Z,96427.94
2023-08-29T12:09:01.329Z,96418.59
2023-08-29T12:11:47.113Z,96428.19
2023-08-29T12:14:49.470Z,96432.97
2023-08-29T12:17:41.381Z,96428.13
2023-08-29T12:20:28.518Z,96427.25
2023-08-29T12:23:14.084Z,96426.44
2023-08-29T12:26:01.092Z,96426.41
2023-08-29T12:28:46.945Z,96430.41
2023-08-29T12:31:32.822Z,96428.25
2023-08-29T12:34:18.366Z,96425.06
2023-08-29T12:37:04.401Z,96427.16
2023-08-29T12:39:50.537Z,96431.94
2023-08-29T12:42:37.185Z,96429.00
2023-08-29T12:45:22.781Z,96427.63
2023-08-29T12:48:09.638Z,96435.34
2023-08-29T12:50:55.218Z,96439.13
2023-08-29T12:53:41.263Z,96427.09
2023-08-29T12:56:26.689Z,96431.63
2023-08-29T12:59:12.153Z,96432.94
2023-08-29T13:01:57.592Z,96428.13
2023-08-29T13:04:42.913Z,96429.44
2023-08-29T13:07:28.410Z,96424.06
2023-08-29T13:10:14.044Z,96426.72
2023-08-29T13:12:59.647Z,96427.47
2023-08-29T13:15:50.552Z,96428.78
2023-08-29T13:18:37.457Z,96430.59
2023-08-29T13:21:23.078Z,96423.63
2023-08-29T13:24:08.569Z,96426.53
2023-08-29T13:26:54.158Z,96426.28
2023-08-29T13:29:39.938Z,96419.28
2023-08-29T13:32:25.829Z,96411.81
2023-08-29T13:35:15.171Z,96413.91
2023-08-29T13:38:01.241Z,96413.34
2023-08-29T13:40:47.266Z,96408.50
2023-08-29T13:43:32.878Z,96401.84
2023-08-29T13:46:18.523Z,96403.97
2023-08-29T13:49:04.359Z,96399.16
2023-08-29T13:51:50.460Z,96400.22
2023-08-29T13:54:37.545Z,96405.84
2023-08-29T13:57:23.301Z,96404.78
2023-08-29T14:00:09.948Z,96401.00
2023-08-29T14:03:01.468Z,96405.03
2023-08-29T14:05:48.266Z,96406.63
2023-08-29T14:08:34.040Z,96412.78
2023-08-29T14:11:20.406Z,96409.00
2023-08-29T14:14:05.796Z,96402.59
2023-08-29T14:16:51.419Z,96415.41
2023-08-29T14:19:37.391Z,96417.00
2023-08-29T14:22:23.095Z,96413.22
2023-08-29T14:25:09.017Z,96411.09
2023-08-29T14:27:57.549Z,96406.56
2023-08-29T14:30:45.080Z,96404.66
2023-08-29T14:33:31.181Z,96412.38
2023-08-29T14:36:16.601Z,96416.38
2023-08-29T14:39:02.106Z,96420.88
2023-08-29T14:41:47.827Z,96426.44
2023-08-29T14:44:33.914Z,96428.56
2023-08-29T14:47:19.440Z,96427.19
2023-08-29T14:50:05.309Z,96423.94
2023-08-29T14:52:51.307Z,96422.59
2023-08-29T14:55:36.783Z,96426.56
2023-08-29T14:58:22.834Z,96432.44
2023-08-29T15:01:08.537Z,96433.72
2023-08-29T15:03:54.583Z,96431.59
2023-08-29T15:06:40.513Z,96440.38
2023-08-29T15:09:25.872Z,96439.31
2023-08-29T15:12:11.480Z,96441.69
2023-08-29T15:14:57.193Z,96444.88
2023-08-29T15:17:42.692Z,96445.69
2023-08-29T15:20:29.633Z,96439.78
2023-08-29T15:23:15.036Z,96435.72
2023-08-29T15:26:00.833Z,96437.31
2023-08-29T15:28:46.418Z,96445.34
2023-08-29T15:31:31.726Z,96444.28
2023-08-29T15:34:17.833Z,96440.00
2023-08-29T15:37:05.934Z,96435.44
2023-08-29T15:39:51.864Z,96435.44
2023-08-29T15:42:38.205Z,96437.63
2023-08-29T15:45:23.647Z,96432.81
2023-08-29T15:48:09.705Z,96437.69
2023-08-29T15:50:55.581Z,96437.94
2023-08-29T15:53:40.963Z,96445.72
2023-08-29T15:56:26.979Z,96445.25
2023-08-29T15:59:12.562Z,96452.50
2023-08-29T16:01:58.826Z,96457.59
2023-08-29T16:04:44.207Z,96458.19
2023-08-29T16:07:29.625Z,96456.34
2023-08-29T16:10:16.106Z,96458.50
2023-08-29T16:13:02.030Z,96460.66
2023-08-29T16:15:48.480Z,96465.22
2023-08-29T16:18:35.163Z,96464.69
2023-08-29T16:21:21.057Z,96458.84
2023-08-29T16:24:08.404Z,96465.25
2023-08-29T16:26:53.971Z,96462.84
2023-08-29T16:29:39.346Z,96470.06
2023-08-29T16:32:24.879Z,96471.16
2023-08-29T16:35:10.487Z,96476.47
2023-08-29T16:38:01.933Z,96478.66
2023-08-29T16:40:47.593Z,96473.03
2023-08-29T16:43:34.173Z,96481.34
2023-08-29T16:46:19.868Z,96474.41
2023-08-29T16:49:05.502Z,96477.31
2023-08-29T16:51:51.240Z,96477.59
2023-08-29T16:54:36.771Z,96472.56
2023-08-29T16:57:22.244Z,96476.00
2023-08-29T17:00:11.457Z,96479.75
2023-08-29T17:03:00.792Z,96479.25
2023-08-29T17:05:46.393Z,96476.06
2023-08-29T17:08:31.833Z,96471.00
2023-08-29T17:11:17.490Z,96468.34
2023-08-29T17:14:03.743Z,96473.69
2023-08-29T17:16:50.289Z,96473.44
2023-08-29T17:19:35.971Z,96477.19
2023-08-29T17:22:21.405Z,96482.25
2023-08-29T17:25:08.058Z,96491.31
2023-08-29T17:27:53.583Z,96485.19
2023-08-29T17:30:39.080Z,96483.59
2023-08-29T17:33:25.303Z,96494.28
2023-08-29T17:36:11.428Z,96487.34
2023-08-29T17:38:57.012Z,96493.50
2023-08-29T17:41:42.620Z,96486.03
2023-08-29T17:44:28.577Z,96494.03
2023-08-29T17:47:16.259Z,96490.06
2023-08-29T17:50:04.371Z,96490.59
2023-08-29T17:52:50.446Z,96489.81
2023-08-29T17:55:36.649Z,96499.72
2023-08-29T17:58:23.515Z,96502.38
2023-08-29T18:01:10.439Z,96506.13
2023-08-29T18:03:57.095Z,96500.25
2023-08-29T18:06:42.438Z,96509.31
2023-08-29T18:09:27.939Z,96505.06
2023-08-29T18:12:13.789Z,96515.22
2023-08-29T18:14:59.351Z,96517.38
2023-08-29T18:17:45.151Z,96515.78
2023-08-29T18:20:30.946Z,96516.34
2023-08-29T18:23:16.560Z,96520.88
2023-08-29T18:26:05.626Z,96522.22
2023-08-29T18:28:51.318Z,96515.84
2023-08-29T18:31:36.868Z,96515.31
2023-08-29T18:34:22.491Z,96507.88
2023-08-29T18:37:10.791Z,96503.84
2023-08-29T18:39:57.605Z,96517.47
2023-08-29T18:42:43.267Z,96523.09
2023-08-29T18:45:28.752Z,96524.44
2023-08-29T18:48:15.725Z,96526.31
2023-08-29T18:51:01.427Z,96533.53
2023-08-29T18:53:46.941Z,96533.81
2023-08-29T18:56:32.663Z,96537.53
2023-08-29T18:59:18.356Z,96537.81
2023-08-29T19:02:05.530Z,96536.22
2023-08-29T19:04:51.602Z,96529.56
2023-08-29T19:07:38.389Z,96521.28
2023-08-29T19:10:24.457Z,96510.63
2023-08-29T19:13:09.960Z,96507.16
2023-08-29T19:15:55.381Z,96507.94
2023-08-29T19:18:41.974Z,96506.88
2023-08-29T19:21:27.466Z,96510.63
2023-08-29T19:24:13.022Z,96509.84
2023-08-29T19:26:58.901Z,96506.34
2023-08-29T19:29:44.378Z,96507.41
2023-08-29T19:32:30.447Z,96518.09
2023-08-29T19:35:16.347Z,96522.63
2023-08-29T19:38:02.762Z,96525.31
2023-08-29T19:40:48.601Z,96526.38
2023-08-29T19:43:34.159Z,96515.69
2023-08-29T19:46:19.710Z,96512.50
2023-08-29T19:49:05.583Z,96508.50
2023-08-29T19:51:51.119Z,96515.72
2023-08-29T19:54:36.882Z,96527.47
2023-08-29T19:57:22.507Z,96524.00
2023-08-29T20:00:08.911Z,96522.13
2023-08-29T20:03:01.595Z,96523.47
2023-08-29T20:05:47.292Z,96524.53
2023-08-29T20:08:33.094Z,96527.22
2023-08-29T20:11:19.623Z,96527.22
2023-08-29T20:14:05.514Z,96525.06
2023-08-29T20:16:53.782Z,96533.34
2023-08-29T20:19:39.771Z,96533.63
2023-08-29T20:22:25.538Z,96540.81
2023-08-29T20:25:11.570Z,96537.63
2023-08-29T20:27:57.108Z,96541.63
2023-08-29T20:30:42.726Z,96554.97
2023-08-29T20:33:28.265Z,96550.72
2023-08-29T20:36:13.992Z,96560.59
2023-08-29T20:38:59.919Z,96566.97
2023-08-29T20:41:45.408Z,96561.66
2023-08-29T20:44:32.479Z,96557.66
2023-08-29T20:47:18.194Z,96556.06
2023-08-29T20:50:04.622Z,96554.47
2023-08-29T20:52:50.115Z,96555.53
2023-08-29T20:55:35.695Z,96553.69
2023-08-29T20:58:21.537Z,96555.03
2023-08-29T21:01:07.281Z,96555.28
2023-08-29T21:03:53.115Z,96555.56
2023-08-29T21:06:39.948Z,96567.28
2023-08-29T21:09:25.745Z,96557.16
2023-08-29T21:12:11.084Z,96566.50
2023-08-29T21:14:56.417Z,96561.41
2023-08-29T21:17:44.341Z,96561.69
2023-08-29T21:20:35.361Z,96555.28
2023-08-29T21:23:20.890Z,96559.31
2023-08-29T21:26:06.751Z,96554.25
2023-08-29T21:28:52.195Z,96551.84
2023-08-29T21:31:37.811Z,96554.78
2023-08-29T21:34:23.665Z,96556.13
2023-08-29T21:37:09.344Z,96549.19
2023-08-29T21:39:55.126Z,96552.13
2023-08-29T21:42:40.809Z,96542.81
2023-08-29T21:45:26.820Z,96539.88
2023-08-29T21:48:12.831Z,96552.41
2023-08-29T21:50:59.715Z,96551.88
2023-08-29T21:53:45.431Z,96550.28
2023-08-29T21:56:31.157Z,96549.72
2023-08-29T21:59:17.040Z,96550.28
2023-08-29T22:02:02.778Z,96555.06
2023-08-29T22:04:49.514Z,96556.69
2023-08-29T22:07:36.350Z,96555.63
2023-08-29T22:10:22.072Z,96545.22
2023-08-29T22:13:11.094Z,96544.97
2023-08-29T22:15:56.543Z,96544.41
2023-08-29T22:18:41.789Z,96535.09
2023-08-29T22:21:27.236Z,96528.69
2023-08-29T22:24:12.619Z,96528.44
2023-08-29T22:26:58.069Z,96520.72
2023-08-29T22:29:43.615Z,96518.84
2023-08-29T22:32:29.164Z,96513.00
2023-08-29T22:35:14.808Z,96520.19
2023-08-29T22:38:00.176Z,96520.47
2023-08-29T22:40:45.886Z,96516.22
2023-08-29T22:43:31.356Z,96510.88
2023-08-29T22:46:16.727Z,96513.25
2023-08-29T22:49:02.257Z,96512.47
2023-08-29T22:51:47.625Z,96514.34
2023-08-29T22:54:33.440Z,96507.69
2023-08-29T22:57:19.763Z,96501.56
2023-08-29T23:00:10.012Z,96504.50
2023-08-29T23:02:55.401Z,96491.47
2023-08-29T23:05:44.510Z,96486.38
2023-08-29T23:08:30.231Z,96478.94
2023-08-29T23:11:16.597Z,96479.47
2023-08-29T23:14:03.991Z,96485.34
2023-08-29T23:16:49.991Z,96476.53
2023-08-29T23:19:35.713Z,96480.53
2023-08-29T23:22:21.269Z,96478.94
2023-08-29T23:25:07.324Z,96474.69
2023-08-29T23:27:53.142Z,96473.63
2023-08-29T23:30:39.129Z,96478.94
2023-08-29T23:33:25.428Z,96480.00
2023-08-29T23:36:11.250Z,96483.47
2023-08-29T23:38:56.749Z,96486.13
2023-08-29T23:41:42.512Z,96480.81
2023-08-29T23:44:28.289Z,96491.75
2023-08-29T23:47:13.563Z,96492.00
2023-08-29T23:49:58.988Z,96494.66
2023-08-29T23:52:44.645Z,96496.00
2023-08-29T23:55:30.077Z,96497.03
2023-08-29T23:58:16.024Z,96492.81
